Mobile, Alabama
Current Conditions -  °F | °C
As of 5:53 AM on Friday 19 Dec 2014 (Local Time) from KBFM Reporting Station
Overcast Overcast  
Wind Chill: 54°   Ceiling: 3900
Heat Index: 54°   Visibility: 10mi
Dew Point: 44°   Wind: 12mph
Humidity: 69%   Direction: 30°NNE
Pressure: 30.13"   Gusts: NA
Location:  30.69°N, 88.05°W
Report Text: KBFM 191153Z 03010KT 10SM OVC039 12/07 A3013 RMK AO2 SLP201 60000 T01220067 10128 20117 56007
Loading
Personal Weather Stations






























Interactive Weather Map New forecast layout! Learn more

10-Day Weather Forecast

Advertisements
Track Severe Weather on mobile